createdAt,value
2018-04-12T00:00:20.736Z,39.00
2018-04-12T00:03:24.522Z,38.90
2018-04-12T00:06:28.324Z,39.00
2018-04-12T00:09:32.119Z,38.90
2018-04-12T00:12:35.931Z,39.00
2018-04-12T00:15:40.492Z,39.00
2018-04-12T00:18:44.269Z,39.00
2018-04-12T00:21:48.135Z,39.00
2018-04-12T00:24:51.924Z,39.00
2018-04-12T00:27:56.475Z,39.10
2018-04-12T00:31:01.035Z,39.10
2018-04-12T00:34:04.915Z,38.90
2018-04-12T00:37:08.728Z,39.00
2018-04-12T00:40:12.546Z,39.00
2018-04-12T00:43:16.342Z,39.00
2018-04-12T00:46:20.145Z,39.00
2018-04-12T00:49:24.686Z,39.00
2018-04-12T00:52:29.236Z,39.00
2018-04-12T00:55:33.783Z,39.00
2018-04-12T00:58:37.578Z,39.00
2018-04-12T01:01:42.138Z,39.10
2018-04-12T01:04:46.670Z,39.00
2018-04-12T01:07:51.223Z,39.00
2018-04-12T01:10:55.050Z,39.00
2018-04-12T01:13:59.679Z,39.00
2018-04-12T01:17:04.659Z,39.00
2018-04-12T01:20:08.538Z,39.00
2018-04-12T01:23:13.210Z,39.00
2018-04-12T01:26:16.984Z,38.80
2018-04-12T01:29:20.757Z,39.00
2018-04-12T01:32:25.290Z,39.00
2018-04-12T01:35:29.804Z,39.00
2018-04-12T01:38:33.647Z,38.80
2018-04-12T01:41:37.574Z,38.90
2018-04-12T01:44:42.095Z,38.90
2018-04-12T01:47:45.904Z,38.90
2018-04-12T01:50:49.692Z,38.90
2018-04-12T01:53:53.509Z,39.00
2018-04-12T01:56:58.062Z,38.90
2018-04-12T02:00:01.842Z,38.90
2018-04-12T02:03:05.650Z,38.90
2018-04-12T02:06:09.431Z,38.90
2018-04-12T02:09:13.234Z,38.90
2018-04-12T02:12:17.784Z,38.90
2018-04-12T02:15:22.309Z,38.90
2018-04-12T02:18:27.251Z,38.90
2018-04-12T02:21:32.269Z,38.90
2018-04-12T02:24:36.098Z,38.90
2018-04-12T02:27:39.901Z,38.90
2018-04-12T02:30:43.679Z,38.90
2018-04-12T02:33:47.524Z,38.90
2018-04-12T02:36:52.054Z,38.90
2018-04-12T02:39:56.603Z,38.90
2018-04-12T02:43:01.150Z,38.90
2018-04-12T02:46:05.675Z,38.90
2018-04-12T02:49:09.621Z,38.80
2018-04-12T02:52:14.175Z,38.90
2018-04-12T02:55:18.339Z,38.90
2018-04-12T02:58:22.165Z,39.00
2018-04-12T03:01:25.956Z,38.90
2018-04-12T03:04:29.785Z,39.00
2018-04-12T03:07:33.609Z,38.90
2018-04-12T03:10:37.415Z,38.90
2018-04-12T03:13:41.961Z,38.90
2018-04-12T03:16:45.769Z,38.90
2018-04-12T03:19:50.316Z,38.90
2018-04-12T03:22:54.859Z,39.00
2018-04-12T03:25:59.380Z,39.10
2018-04-12T03:29:03.197Z,39.00
2018-04-12T03:32:07.005Z,38.90
2018-04-12T03:35:10.820Z,39.00
2018-04-12T03:38:14.624Z,39.00
2018-04-12T03:41:18.397Z,39.00
2018-04-12T03:44:22.200Z,39.00
2018-04-12T03:47:25.992Z,39.00
2018-04-12T03:50:29.885Z,39.00
2018-04-12T03:53:33.740Z,39.00
2018-04-12T03:56:37.648Z,39.00
2018-04-12T03:59:42.199Z,39.00
2018-04-12T04:02:46.713Z,39.00
2018-04-12T04:05:50.533Z,39.00
2018-04-12T04:08:54.374Z,38.90
2018-04-12T04:11:58.129Z,39.00
2018-04-12T04:15:28.616Z,39.00
2018-04-12T04:18:50.358Z,39.00
2018-04-12T04:21:54.137Z,39.00
2018-04-12T04:24:57.945Z,38.90
2018-04-12T04:28:02.469Z,39.00
2018-04-12T04:31:06.302Z,38.90
2018-04-12T04:34:10.868Z,39.00
2018-04-12T04:37:14.648Z,38.90
2018-04-12T04:40:18.456Z,38.90
2018-04-12T04:43:22.246Z,39.00
2018-04-12T04:46:26.144Z,39.00
2018-04-12T04:49:30.009Z,39.10
2018-04-12T04:52:33.833Z,39.00
2018-04-12T04:55:37.648Z,39.10
2018-04-12T04:58:41.420Z,39.00
2018-04-12T05:01:45.225Z,39.00
2018-04-12T05:04:49.029Z,39.00
2018-04-12T05:07:52.837Z,39.00
2018-04-12T05:10:56.646Z,39.00
2018-04-12T05:14:01.176Z,39.10
2018-04-12T05:17:05.189Z,39.10
2018-04-12T05:20:09.732Z,39.00
2018-04-12T05:23:13.512Z,39.00
2018-04-12T05:26:17.310Z,39.10
2018-04-12T05:29:21.849Z,39.10
2018-04-12T05:32:26.402Z,39.10
2018-04-12T05:35:30.209Z,39.00
2018-04-12T05:38:34.728Z,39.20
2018-04-12T05:41:38.528Z,39.10
2018-04-12T05:44:42.335Z,39.10
2018-04-12T05:47:46.109Z,39.10
2018-04-12T05:50:49.911Z,39.10
2018-04-12T05:53:53.694Z,39.20
2018-04-12T05:56:57.501Z,39.10
2018-04-12T06:00:02.065Z,39.20
2018-04-12T06:03:05.871Z,39.20
2018-04-12T06:06:09.677Z,39.20
2018-04-12T06:09:13.456Z,39.20
2018-04-12T06:12:17.264Z,39.90
2018-04-12T06:15:21.071Z,39.10
2018-04-12T06:18:24.848Z,39.20
2018-04-12T06:21:28.666Z,39.10
2018-04-12T06:24:32.441Z,39.10
2018-04-12T06:27:36.404Z,39.20
2018-04-12T06:30:40.207Z,39.20
2018-04-12T06:33:43.987Z,39.10
2018-04-12T06:36:47.783Z,39.10
2018-04-12T06:39:51.587Z,39.10
2018-04-12T06:42:55.391Z,39.20
2018-04-12T06:45:59.938Z,39.20
2018-04-12T06:49:03.720Z,39.20
2018-04-12T06:52:07.545Z,39.20
2018-04-12T06:55:11.505Z,39.20
2018-04-12T06:58:16.023Z,39.20
2018-04-12T07:01:19.821Z,39.20
2018-04-12T07:04:23.607Z,39.20
2018-04-12T07:07:27.405Z,39.20
2018-04-12T07:10:31.952Z,39.20
2018-04-12T07:13:36.475Z,39.20
2018-04-12T07:16:40.294Z,39.20
2018-04-12T07:19:44.065Z,39.20
2018-04-12T07:22:47.866Z,39.20
2018-04-12T07:25:52.407Z,39.30
2018-04-12T07:28:56.924Z,39.20
2018-04-12T07:32:00.799Z,39.20
2018-04-12T07:35:04.634Z,39.30
2018-04-12T07:38:08.457Z,39.30
2018-04-12T07:41:12.268Z,40.00
2018-04-12T07:44:16.067Z,39.30
2018-04-12T07:47:20.605Z,39.40
2018-04-12T07:50:25.131Z,39.40
2018-04-12T07:53:28.941Z,39.40
2018-04-12T07:56:32.759Z,39.40
2018-04-12T07:59:36.541Z,39.40
2018-04-12T08:02:40.405Z,39.40
2018-04-12T08:05:44.235Z,39.40
2018-04-12T08:08:48.020Z,39.40
2018-04-12T08:11:51.829Z,39.40
2018-04-12T08:14:55.612Z,39.40
2018-04-12T08:17:59.420Z,39.40
2018-04-12T08:21:03.228Z,39.40
2018-04-12T08:24:07.049Z,39.50
2018-04-12T08:27:10.860Z,39.50
2018-04-12T08:30:14.638Z,39.40
2018-04-12T08:33:18.456Z,39.50
2018-04-12T08:36:22.267Z,39.50
2018-04-12T08:39:26.040Z,39.50
2018-04-12T08:42:31.314Z,39.60
2018-04-12T08:45:35.096Z,39.60
2018-04-12T08:48:39.482Z,39.50
2018-04-12T08:51:43.321Z,39.20
2018-04-12T08:54:47.107Z,39.60
2018-04-12T08:57:51.653Z,39.60
2018-04-12T09:00:56.180Z,39.60
2018-04-12T09:04:00.813Z,39.60
2018-04-12T09:07:04.622Z,39.50
2018-04-12T09:10:08.397Z,39.60
2018-04-12T09:13:12.217Z,39.60
2018-04-12T09:16:16.051Z,39.60
2018-04-12T09:19:19.851Z,39.60
2018-04-12T09:22:24.395Z,39.60
2018-04-12T09:25:28.908Z,39.60
2018-04-12T09:28:32.711Z,39.50
2018-04-12T09:31:36.541Z,39.60
2018-04-12T09:34:40.374Z,39.60
2018-04-12T09:37:44.189Z,39.60
2018-04-12T09:40:47.976Z,39.60
2018-04-12T09:43:51.777Z,39.50
2018-04-12T09:46:56.318Z,39.60
2018-04-12T09:50:00.116Z,39.50
2018-04-12T09:53:03.941Z,39.50
2018-04-12T09:56:07.745Z,39.60
2018-04-12T09:59:11.567Z,39.60
2018-04-12T10:02:15.383Z,39.70
2018-04-12T10:05:35.868Z,39.70
2018-04-12T10:08:43.420Z,39.70
2018-04-12T10:11:47.200Z,39.70
2018-04-12T10:14:51.020Z,39.50
2018-04-12T10:17:54.881Z,39.50
2018-04-12T10:20:58.666Z,39.50
2018-04-12T10:24:02.472Z,39.50
2018-04-12T10:27:06.296Z,39.40
2018-04-12T10:30:10.175Z,39.40
2018-04-12T10:33:13.984Z,39.40
2018-04-12T10:36:18.502Z,39.40
2018-04-12T10:39:23.063Z,39.50
2018-04-12T10:42:26.874Z,39.40
2018-04-12T10:45:30.659Z,39.60
2018-04-12T10:48:35.200Z,39.60
2018-04-12T10:51:38.987Z,39.60
2018-04-12T10:54:42.791Z,39.70
2018-04-12T10:57:46.690Z,39.70
2018-04-12T11:00:51.216Z,39.70
2018-04-12T11:03:55.759Z,39.70
2018-04-12T11:07:00.280Z,39.70
2018-04-12T11:10:04.093Z,39.70
2018-04-12T11:13:07.908Z,39.70
2018-04-12T11:16:11.698Z,39.70
2018-04-12T11:19:15.488Z,39.70
2018-04-12T11:22:20.010Z,39.90
2018-04-12T11:25:23.840Z,39.90
2018-04-12T11:28:27.665Z,39.90
2018-04-12T11:31:31.442Z,40.30
2018-04-12T11:34:35.295Z,39.80
2018-04-12T11:37:39.105Z,39.90
2018-04-12T11:40:42.912Z,40.00
2018-04-12T11:43:46.735Z,40.00
2018-04-12T11:46:50.546Z,39.80
2018-04-12T11:49:55.177Z,40.00
2018-04-12T11:52:58.941Z,39.90
2018-04-12T11:56:02.763Z,39.90
2018-04-12T11:59:06.579Z,39.90
2018-04-12T12:02:10.365Z,40.00
2018-04-12T12:05:14.156Z,39.80
2018-04-12T12:08:17.935Z,39.80
2018-04-12T12:11:21.732Z,39.80
2018-04-12T12:14:25.538Z,39.80
2018-04-12T12:17:29.329Z,39.80
2018-04-12T12:20:33.134Z,40.40
2018-04-12T12:23:36.979Z,39.80
2018-04-12T12:26:40.821Z,39.90
2018-04-12T12:29:44.635Z,39.90
2018-04-12T12:32:48.413Z,39.80
2018-04-12T12:35:52.250Z,39.90
2018-04-12T12:38:56.060Z,39.90
2018-04-12T12:42:00.576Z,40.00
2018-04-12T12:45:04.388Z,40.00
2018-04-12T12:48:08.177Z,40.00
2018-04-12T12:51:11.981Z,40.00
2018-04-12T12:54:16.536Z,40.20
2018-04-12T12:57:20.324Z,40.10
2018-04-12T13:00:24.121Z,40.20
2018-04-12T13:03:27.902Z,40.10
2018-04-12T13:06:31.703Z,40.80
2018-04-12T13:09:36.258Z,40.60
2018-04-12T13:12:40.062Z,40.10
2018-04-12T13:15:43.880Z,40.20
2018-04-12T13:18:47.665Z,40.20
2018-04-12T13:21:51.466Z,40.20
2018-04-12T13:24:55.310Z,40.20
2018-04-12T13:27:59.078Z,40.20
2018-04-12T13:31:02.891Z,40.20
2018-04-12T13:34:06.664Z,40.30
2018-04-12T13:37:10.514Z,40.30
2018-04-12T13:40:14.351Z,40.40
2018-04-12T13:43:18.148Z,40.30
2018-04-12T13:46:22.402Z,40.40
2018-04-12T13:49:26.203Z,40.40
2018-04-12T13:52:30.751Z,40.40
2018-04-12T13:55:34.558Z,40.30
2018-04-12T13:58:38.348Z,40.40
2018-04-12T14:01:42.159Z,40.30
2018-04-12T14:04:46.042Z,40.30
2018-04-12T14:07:50.536Z,40.40
2018-04-12T14:10:54.344Z,40.30
2018-04-12T14:13:58.141Z,40.40
2018-04-12T14:17:01.950Z,40.40
2018-04-12T14:20:05.751Z,40.40
2018-04-12T14:23:10.284Z,40.40
2018-04-12T14:26:14.829Z,40.50
2018-04-12T14:29:18.606Z,40.40
2018-04-12T14:32:22.405Z,40.40
2018-04-12T14:35:26.218Z,40.40
2018-04-12T14:38:30.002Z,40.40
2018-04-12T14:41:33.811Z,40.40
2018-04-12T14:44:37.594Z,40.30
2018-04-12T14:47:41.401Z,40.40
2018-04-12T14:50:45.954Z,40.40
2018-04-12T14:53:49.733Z,40.30
2018-04-12T14:56:53.546Z,40.40
2018-04-12T14:59:57.327Z,40.40
2018-04-12T15:03:01.141Z,40.30
2018-04-12T15:06:05.691Z,40.40
2018-04-12T15:09:10.216Z,40.30
2018-04-12T15:12:14.760Z,40.40
2018-04-12T15:15:19.441Z,40.90
2018-04-12T15:18:23.225Z,40.20
2018-04-12T15:21:27.045Z,40.20
2018-04-12T15:24:30.899Z,40.40
2018-04-12T15:27:34.698Z,40.30
2018-04-12T15:30:39.251Z,40.70
2018-04-12T15:33:43.072Z,40.20
2018-04-12T15:36:47.629Z,40.30
2018-04-12T15:39:51.599Z,40.30
2018-04-12T15:42:55.410Z,40.30
2018-04-12T15:45:59.247Z,40.30
2018-04-12T15:49:03.130Z,40.40
2018-04-12T15:52:06.940Z,40.30
2018-04-12T15:55:11.475Z,40.30
2018-04-12T15:58:16.047Z,40.40
2018-04-12T16:01:19.857Z,40.30
2018-04-12T16:04:23.661Z,40.40
2018-04-12T16:07:28.213Z,40.40
2018-04-12T16:10:32.740Z,40.30
2018-04-12T16:13:36.584Z,40.30
2018-04-12T16:16:40.398Z,41.10
2018-04-12T16:19:44.315Z,40.40
2018-04-12T16:22:48.873Z,40.40
2018-04-12T16:25:53.420Z,40.40
2018-04-12T16:28:57.940Z,40.40
2018-04-12T16:32:01.753Z,40.30
2018-04-12T16:35:05.541Z,40.30
2018-04-12T16:38:09.370Z,40.30
2018-04-12T16:41:13.202Z,40.30
2018-04-12T16:44:16.981Z,40.30
2018-04-12T16:47:20.781Z,41.00
2018-04-12T16:50:24.652Z,40.30
2018-04-12T16:53:28.480Z,40.40
2018-04-12T16:56:32.297Z,40.30
2018-04-12T16:59:36.077Z,40.30
2018-04-12T17:02:39.885Z,40.30
2018-04-12T17:05:43.666Z,40.50
2018-04-12T17:08:47.473Z,40.20
2018-04-12T17:11:51.277Z,40.10
2018-04-12T17:14:55.831Z,40.10
2018-04-12T17:18:00.385Z,40.10
2018-04-12T17:21:04.165Z,40.00
2018-04-12T17:24:07.972Z,40.10
2018-04-12T17:27:11.779Z,40.20
2018-04-12T17:30:15.563Z,40.00
2018-04-12T17:33:20.114Z,40.20
2018-04-12T17:36:24.692Z,40.00
2018-04-12T17:39:28.545Z,40.00
2018-04-12T17:42:32.340Z,40.00
2018-04-12T17:45:36.121Z,40.00
2018-04-12T17:48:40.026Z,40.00
2018-04-12T17:51:43.828Z,40.10
2018-04-12T17:54:47.609Z,40.00
2018-04-12T17:57:51.419Z,40.00
2018-04-12T18:00:55.284Z,40.60
2018-04-12T18:03:59.097Z,40.10
2018-04-12T18:07:03.655Z,40.10
2018-04-12T18:10:07.436Z,40.00
2018-04-12T18:13:11.243Z,40.00
2018-04-12T18:16:15.023Z,40.20
2018-04-12T18:19:18.843Z,40.10
2018-04-12T18:22:23.398Z,40.00
2018-04-12T18:25:27.173Z,39.90
2018-04-12T18:28:31.342Z,40.00
2018-04-12T18:31:35.868Z,40.00
2018-04-12T18:34:40.426Z,40.00
2018-04-12T18:37:44.246Z,39.90
2018-04-12T18:40:48.047Z,39.90
2018-04-12T18:43:51.852Z,40.00
2018-04-12T18:46:55.636Z,39.90
2018-04-12T18:49:59.438Z,40.00
2018-04-12T18:53:04.030Z,40.00
2018-04-12T18:56:07.829Z,39.90
2018-04-12T18:59:11.671Z,40.00
2018-04-12T19:02:15.493Z,39.90
2018-04-12T19:05:20.778Z,39.90
2018-04-12T19:08:24.641Z,39.90
2018-04-12T19:11:28.429Z,40.00
2018-04-12T19:14:32.233Z,39.90
2018-04-12T19:17:36.044Z,39.90
2018-04-12T19:20:39.831Z,39.90
2018-04-12T19:23:44.390Z,40.00
2018-04-12T19:26:48.170Z,40.00
2018-04-12T19:29:51.973Z,40.00
2018-04-12T19:32:55.783Z,40.00
2018-04-12T19:35:59.566Z,40.00
2018-04-12T19:39:04.112Z,40.00
2018-04-12T19:42:07.894Z,39.90
2018-04-12T19:45:11.693Z,39.90
2018-04-12T19:48:15.497Z,40.00
2018-04-12T19:51:19.282Z,39.90
2018-04-12T19:54:23.090Z,40.00
2018-04-12T19:57:26.890Z,40.00
2018-04-12T20:00:30.700Z,39.90
2018-04-12T20:03:34.518Z,40.00
2018-04-12T20:06:39.065Z,40.00
2018-04-12T20:09:42.944Z,39.80
2018-04-12T20:12:46.728Z,39.90
2018-04-12T20:15:50.554Z,39.90
2018-04-12T20:18:54.386Z,39.80
2018-04-12T20:21:58.221Z,39.90
2018-04-12T20:25:02.032Z,39.90
2018-04-12T20:28:05.856Z,39.80
2018-04-12T20:31:09.656Z,39.80
2018-04-12T20:34:14.233Z,39.80
2018-04-12T20:37:18.021Z,39.80
2018-04-12T20:40:22.579Z,40.00
2018-04-12T20:43:26.412Z,40.50
2018-04-12T20:46:30.189Z,39.80
2018-04-12T20:49:34.002Z,39.90
2018-04-12T20:52:37.783Z,40.00
2018-04-12T20:55:41.601Z,39.90
2018-04-12T20:58:45.454Z,39.90
2018-04-12T21:01:49.233Z,39.90
2018-04-12T21:04:53.781Z,39.90
2018-04-12T21:07:57.564Z,39.80
2018-04-12T21:11:01.365Z,40.00
2018-04-12T21:14:05.216Z,39.90
2018-04-12T21:17:09.002Z,39.90
2018-04-12T21:20:12.894Z,39.90
2018-04-12T21:23:17.493Z,39.80
2018-04-12T21:26:21.417Z,39.80
2018-04-12T21:29:25.216Z,39.90
2018-04-12T21:32:29.735Z,39.90
2018-04-12T21:35:33.547Z,39.70
2018-04-12T21:38:37.368Z,39.80
2018-04-12T21:41:41.172Z,39.80
2018-04-12T21:44:44.968Z,39.80
2018-04-12T21:47:49.488Z,40.20
2018-04-12T21:50:53.310Z,39.70
2018-04-12T21:53:57.112Z,39.80
2018-04-12T21:57:00.900Z,39.80
2018-04-12T22:00:04.708Z,39.90
2018-04-12T22:03:08.492Z,39.80
2018-04-12T22:06:12.337Z,39.90
2018-04-12T22:09:16.926Z,39.90
2018-04-12T22:12:20.706Z,39.80
2018-04-12T22:15:24.507Z,39.90
2018-04-12T22:18:28.292Z,39.90
2018-04-12T22:21:32.118Z,39.90
2018-04-12T22:24:35.925Z,39.90
2018-04-12T22:27:39.762Z,39.90
2018-04-12T22:30:43.573Z,39.90
2018-04-12T22:33:47.355Z,39.90
2018-04-12T22:36:51.160Z,39.90
2018-04-12T22:39:54.954Z,39.90
2018-04-12T22:42:58.732Z,39.90
2018-04-12T22:46:02.537Z,40.00
2018-04-12T22:49:06.329Z,39.90
2018-04-12T22:52:10.897Z,40.50
2018-04-12T22:55:15.433Z,39.90
2018-04-12T22:58:19.955Z,39.90
2018-04-12T23:01:23.784Z,40.50
2018-04-12T23:04:28.333Z,39.90
2018-04-12T23:07:32.859Z,39.90
2018-04-12T23:10:37.413Z,39.90
2018-04-12T23:13:41.942Z,39.90
2018-04-12T23:16:46.535Z,40.50
2018-04-12T23:19:50.350Z,39.80
2018-04-12T23:22:54.120Z,39.90
2018-04-12T23:25:57.918Z,39.90
2018-04-12T23:29:01.697Z,39.90
2018-04-12T23:32:06.237Z,40.50
2018-04-12T23:35:10.797Z,39.90
2018-04-12T23:38:14.598Z,39.80
2018-04-12T23:41:19.818Z,39.90
2018-04-12T23:44:23.693Z,39.80
2018-04-12T23:47:28.252Z,40.00
2018-04-12T23:50:32.075Z,39.90
2018-04-12T23:53:35.859Z,40.00
2018-04-12T23:56:41.391Z,39.90
2018-04-12T23:59:45.204Z,39.80
